Terminal Aerodrome Forecast
Issued by NWS Jackson, KY

Home | Current Version | Previous Version | Text Only | Print | Product List | Glossary On
Versions: 1 2 3 4 5 6 7 8 9 10 11 12 13 14 15 16 17 18
800
FTUS43 KJKL 221949 AAA
TAFJKL
TAF AMD
KJKL 221949Z 2220/2318 VRB03KT P6SM VCSH BKN030
     FM222200 07004KT P6SM VCSH OVC020
     FM230400 36007KT 4SM SHRA VCTS OVC015CB
     FM231200 36007KT 2SM -SHRA OVC003=

USA.gov is the U.S. government's official web portal to all federal, state and local government web resources and services.